createdAt,value
2023-03-02T00:01:07.943Z,6.50
2023-03-02T00:02:13.880Z,6.90
2023-03-02T00:03:17.644Z,3.20
2023-03-02T00:04:27.549Z,8.30
2023-03-02T00:05:31.131Z,10.40
2023-03-02T00:06:35.908Z,6.90
2023-03-02T00:07:38.355Z,7.10
2023-03-02T00:08:41.332Z,5.80
2023-03-02T00:09:44.797Z,11.40
2023-03-02T00:10:50.669Z,10.00
2023-03-02T00:11:53.029Z,8.20
2023-03-02T00:12:55.612Z,7.00
2023-03-02T00:13:58.784Z,7.00
2023-03-02T00:15:01.179Z,6.20
2023-03-02T00:16:04.721Z,6.20
2023-03-02T00:17:07.476Z,6.80
2023-03-02T00:18:10.112Z,6.27
2023-03-02T00:19:12.463Z,10.70
2023-03-02T00:20:16.239Z,6.60
2023-03-02T00:21:18.742Z,8.50
2023-03-02T00:22:21.018Z,7.90
2023-03-02T00:23:23.228Z,10.10
2023-03-02T00:24:25.485Z,7.90
2023-03-02T00:25:28.209Z,5.70
2023-03-02T00:26:34.391Z,9.20
2023-03-02T00:27:37.821Z,5.80
2023-03-02T00:28:41.053Z,6.70
2023-03-02T00:29:43.506Z,8.36
2023-03-02T00:30:46.122Z,11.30
2023-03-02T00:31:48.237Z,11.10
2023-03-02T00:32:51.025Z,12.50
2023-03-02T00:33:55.558Z,10.10
2023-03-02T00:34:57.970Z,9.80
2023-03-02T00:36:00.909Z,7.60
2023-03-02T00:37:03.272Z,10.36
2023-03-02T00:38:06.595Z,9.40
2023-03-02T00:39:09.317Z,12.00
2023-03-02T00:40:12.507Z,9.64
2023-03-02T00:41:15.717Z,11.20
2023-03-02T00:42:18.520Z,11.30
2023-03-02T00:43:23.402Z,9.10
2023-03-02T00:44:26.052Z,12.70
2023-03-02T00:45:28.384Z,13.70
2023-03-02T00:46:31.299Z,8.40
2023-03-02T00:47:36.881Z,11.10
2023-03-02T00:48:40.267Z,10.30
2023-03-02T00:49:44.521Z,12.10
2023-03-02T00:50:46.959Z,9.90
2023-03-02T00:51:49.327Z,11.60
2023-03-02T00:52:51.561Z,6.50
2023-03-02T00:53:53.700Z,5.40
2023-03-02T00:54:56.052Z,7.90
2023-03-02T00:55:58.507Z,8.00
2023-03-02T00:57:03.467Z,13.10
2023-03-02T00:58:06.465Z,12.60
2023-03-02T00:59:13.135Z,5.55
2023-03-02T01:00:16.156Z,5.50
2023-03-02T01:01:21.448Z,8.70
2023-03-02T01:02:25.997Z,6.60
2023-03-02T01:03:31.177Z,5.73
2023-03-02T01:04:39.355Z,8.40
2023-03-02T01:05:42.129Z,6.50
2023-03-02T01:06:47.113Z,9.60
2023-03-02T01:07:49.766Z,11.60
2023-03-02T01:08:51.870Z,8.30
2023-03-02T01:09:54.663Z,11.90
2023-03-02T01:10:59.083Z,8.64
2023-03-02T01:12:02.493Z,6.90
2023-03-02T01:13:05.771Z,10.20
2023-03-02T01:14:08.192Z,7.90
2023-03-02T01:15:11.308Z,6.60
2023-03-02T01:16:14.668Z,4.20
2023-03-02T01:17:21.521Z,10.40
2023-03-02T01:18:24.279Z,10.40
2023-03-02T01:19:26.496Z,6.40
2023-03-02T01:20:29.060Z,9.10
2023-03-02T01:21:31.724Z,8.30
2023-03-02T01:22:34.172Z,9.80
2023-03-02T01:23:37.734Z,5.40
2023-03-02T01:24:40.221Z,8.60
2023-03-02T01:25:42.475Z,8.80
2023-03-02T01:26:44.754Z,11.90
2023-03-02T01:27:47.090Z,8.40
2023-03-02T01:28:52.259Z,9.40
2023-03-02T01:29:54.739Z,8.80
2023-03-02T01:30:57.439Z,5.80
2023-03-02T01:32:00.093Z,9.00
2023-03-02T01:33:02.607Z,6.40
2023-03-02T01:34:05.263Z,3.10
2023-03-02T01:35:08.130Z,6.80
2023-03-02T01:36:11.150Z,6.30
2023-03-02T01:37:13.581Z,7.10
2023-03-02T01:38:16.061Z,7.50
2023-03-02T01:39:20.837Z,6.80
2023-03-02T01:40:24.153Z,9.00
2023-03-02T01:41:29.361Z,7.90
2023-03-02T01:43:48.884Z,3.00
2023-03-02T01:44:56.624Z,6.90
2023-03-02T01:46:12.040Z,7.00
2023-03-02T01:47:23.242Z,10.00
2023-03-02T01:48:31.201Z,5.80
2023-03-02T01:49:37.199Z,7.60
2023-03-02T01:50:49.822Z,7.70
2023-03-02T01:51:52.794Z,7.40
2023-03-02T01:52:56.423Z,8.18
2023-03-02T01:54:02.749Z,7.10
2023-03-02T01:55:08.664Z,6.10
2023-03-02T01:56:12.862Z,5.30
2023-03-02T01:57:24.776Z,7.50
2023-03-02T01:58:30.253Z,7.30
2023-03-02T01:59:35.473Z,7.40
2023-03-02T02:00:39.417Z,7.50
2023-03-02T02:01:45.859Z,7.20
2023-03-02T02:02:49.826Z,6.60
2023-03-02T02:03:52.938Z,7.10
2023-03-02T02:04:56.248Z,6.80
2023-03-02T02:06:21.151Z,7.70
2023-03-02T02:07:23.789Z,5.30
2023-03-02T02:08:26.708Z,7.91
2023-03-02T02:09:32.723Z,6.70
2023-03-02T02:10:35.390Z,5.80
2023-03-02T02:11:38.605Z,5.90
2023-03-02T02:12:40.977Z,9.10
2023-03-02T02:13:44.198Z,9.20
2023-03-02T02:14:47.893Z,8.20
2023-03-02T02:15:50.789Z,11.20
2023-03-02T02:16:53.525Z,9.20
2023-03-02T02:17:56.067Z,10.00
2023-03-02T02:18:59.340Z,10.80
2023-03-02T02:20:15.840Z,6.80
2023-03-02T02:21:20.818Z,11.70
2023-03-02T02:22:52.819Z,10.50
2023-03-02T02:24:01.646Z,16.10
2023-03-02T02:25:07.653Z,16.50
2023-03-02T02:26:29.358Z,14.91
2023-03-02T02:27:33.555Z,17.10
2023-03-02T02:29:58.952Z,17.60
2023-03-02T02:31:15.074Z,13.80
2023-03-02T02:32:21.221Z,10.50
2023-03-02T02:33:25.962Z,12.10
2023-03-02T02:34:34.483Z,10.60
2023-03-02T02:35:38.426Z,11.10
2023-03-02T02:36:45.000Z,7.90
2023-03-02T02:37:52.133Z,12.30
2023-03-02T02:38:56.529Z,2.40
2023-03-02T02:40:02.627Z,12.90
2023-03-02T02:41:08.091Z,14.50
2023-03-02T02:42:14.322Z,8.00
2023-03-02T02:43:19.810Z,9.00
2023-03-02T02:44:22.296Z,13.10
2023-03-02T02:45:26.814Z,14.70
2023-03-02T02:46:29.793Z,12.20
2023-03-02T02:47:32.597Z,12.55
2023-03-02T02:48:34.887Z,6.70
2023-03-02T02:49:40.418Z,16.60
2023-03-02T02:50:43.757Z,15.70
2023-03-02T02:51:48.224Z,14.40
2023-03-02T02:54:04.129Z,11.80
2023-03-02T02:55:18.635Z,9.90
2023-03-02T02:56:22.944Z,12.90
2023-03-02T02:57:29.189Z,7.80
2023-03-02T02:58:41.179Z,10.60
2023-03-02T03:00:59.555Z,8.10
2023-03-02T03:02:03.219Z,10.20
2023-03-02T03:03:09.201Z,7.30
2023-03-02T03:04:15.312Z,7.80
2023-03-02T03:05:18.086Z,6.30
2023-03-02T03:06:28.251Z,8.36
2023-03-02T03:07:32.032Z,7.00
2023-03-02T03:08:45.134Z,7.30
2023-03-02T03:10:08.244Z,5.20
2023-03-02T03:11:18.161Z,8.10
2023-03-02T03:12:24.048Z,6.40
2023-03-02T03:13:27.528Z,7.90
2023-03-02T03:14:38.919Z,7.60
2023-03-02T03:15:41.410Z,7.30
2023-03-02T03:16:46.721Z,7.20
2023-03-02T03:17:59.288Z,9.00
2023-03-02T03:19:12.161Z,5.70
2023-03-02T03:20:17.225Z,8.90
2023-03-02T03:21:19.798Z,5.60
2023-03-02T03:22:22.137Z,4.00
2023-03-02T03:23:25.700Z,7.00
2023-03-02T03:24:29.637Z,7.40
2023-03-02T03:25:34.564Z,9.20
2023-03-02T03:26:36.915Z,5.80
2023-03-02T03:27:41.284Z,9.90
2023-03-02T03:28:44.135Z,9.90
2023-03-02T03:29:48.033Z,7.40
2023-03-02T03:30:52.128Z,9.60
2023-03-02T03:31:58.283Z,8.50
2023-03-02T03:33:01.109Z,7.70
2023-03-02T03:34:04.324Z,8.00
2023-03-02T03:35:11.103Z,5.60
2023-03-02T03:36:14.218Z,9.40
2023-03-02T03:37:18.998Z,10.30
2023-03-02T03:38:22.071Z,15.40
2023-03-02T03:39:24.861Z,10.60
2023-03-02T03:40:28.508Z,11.50
2023-03-02T03:41:31.389Z,4.30
2023-03-02T03:42:33.787Z,18.18
2023-03-02T03:43:36.758Z,10.80
2023-03-02T03:44:39.285Z,12.91
2023-03-02T03:45:41.882Z,11.60
2023-03-02T03:46:44.552Z,15.09
2023-03-02T03:47:47.249Z,4.20
2023-03-02T03:48:49.828Z,10.60
2023-03-02T03:49:52.086Z,12.60
2023-03-02T03:50:55.364Z,12.00
2023-03-02T03:51:58.164Z,11.40
2023-03-02T03:53:03.422Z,10.00
2023-03-02T03:54:08.657Z,11.00
2023-03-02T03:55:13.592Z,9.90
2023-03-02T03:56:16.690Z,8.50
2023-03-02T03:57:19.147Z,11.30
2023-03-02T03:58:21.611Z,8.30
2023-03-02T03:59:25.657Z,5.40
2023-03-02T04:00:29.981Z,8.00
2023-03-02T04:01:43.140Z,5.00
2023-03-02T04:02:46.659Z,7.30
2023-03-02T04:03:49.509Z,2.00
2023-03-02T04:04:52.553Z,3.30
2023-03-02T04:05:55.001Z,7.82
2023-03-02T04:06:58.755Z,6.80
2023-03-02T04:08:01.633Z,5.80
2023-03-02T04:09:05.990Z,6.10
2023-03-02T04:10:10.774Z,5.50
2023-03-02T04:11:14.704Z,6.70
2023-03-02T04:12:17.327Z,3.40
2023-03-02T04:13:21.690Z,6.40
2023-03-02T04:14:25.142Z,10.00
2023-03-02T04:15:29.134Z,9.20
2023-03-02T04:16:34.756Z,6.00
2023-03-02T04:17:37.272Z,10.20
2023-03-02T04:18:39.851Z,8.90
2023-03-02T04:19:42.454Z,6.00
2023-03-02T04:20:45.479Z,6.50
2023-03-02T04:21:52.452Z,6.20
2023-03-02T04:22:56.509Z,6.90
2023-03-02T04:23:59.816Z,6.00
2023-03-02T04:25:05.004Z,6.00
2023-03-02T04:26:08.018Z,10.60
2023-03-02T04:27:11.068Z,5.10
2023-03-02T04:28:17.364Z,8.64
2023-03-02T04:29:21.075Z,10.10
2023-03-02T04:30:28.251Z,9.50
2023-03-02T04:31:34.847Z,6.30
2023-03-02T04:32:39.519Z,9.20
2023-03-02T04:33:41.887Z,6.30
2023-03-02T04:34:44.775Z,6.82
2023-03-02T04:35:47.938Z,9.30
2023-03-02T04:36:51.152Z,9.60
2023-03-02T04:37:54.189Z,7.36
2023-03-02T04:38:56.426Z,12.55
2023-03-02T04:39:58.547Z,12.90
2023-03-02T04:41:00.803Z,12.70
2023-03-02T04:42:03.107Z,12.82
2023-03-02T04:43:05.684Z,15.40
2023-03-02T04:44:07.836Z,18.70
2023-03-02T04:45:10.922Z,13.70
2023-03-02T04:46:20.117Z,13.70
2023-03-02T04:47:23.009Z,14.80
2023-03-02T04:48:25.582Z,19.30
2023-03-02T04:49:28.950Z,15.70
2023-03-02T04:50:31.792Z,21.60
2023-03-02T04:51:40.381Z,14.70
2023-03-02T04:52:42.659Z,24.40
2023-03-02T04:53:44.816Z,13.40
2023-03-02T04:54:47.461Z,15.20
2023-03-02T04:55:50.892Z,17.80
2023-03-02T04:56:54.769Z,13.90
2023-03-02T04:57:57.060Z,17.20
2023-03-02T04:59:00.830Z,9.40
2023-03-02T05:00:04.580Z,10.90
2023-03-02T05:01:10.728Z,4.30
2023-03-02T05:02:13.050Z,8.50
2023-03-02T05:03:15.503Z,9.00
2023-03-02T05:04:18.364Z,12.20
2023-03-02T05:05:23.788Z,11.73
2023-03-02T05:06:26.069Z,9.40
2023-03-02T05:07:28.470Z,7.90
2023-03-02T05:08:31.506Z,7.60
2023-03-02T05:09:33.968Z,6.40
2023-03-02T05:10:36.742Z,9.00
2023-03-02T05:11:39.183Z,9.10
2023-03-02T05:12:54.559Z,8.20
2023-03-02T05:14:00.544Z,7.60
2023-03-02T05:15:03.365Z,6.20
2023-03-02T05:16:06.773Z,8.80
2023-03-02T05:17:09.097Z,1.60
2023-03-02T05:18:12.170Z,8.50
2023-03-02T05:19:15.643Z,3.36
2023-03-02T05:20:19.258Z,9.80
2023-03-02T05:21:21.766Z,3.80
2023-03-02T05:22:24.113Z,7.70
2023-03-02T05:23:27.093Z,8.40
2023-03-02T05:24:29.476Z,5.45
2023-03-02T05:25:34.830Z,7.80
2023-03-02T05:26:38.010Z,5.40
2023-03-02T05:27:40.576Z,7.20
2023-03-02T05:28:43.943Z,8.60
2023-03-02T05:29:46.233Z,8.90
2023-03-02T05:30:50.809Z,6.80
2023-03-02T05:31:53.607Z,6.00
2023-03-02T05:32:56.133Z,10.09
2023-03-02T05:33:58.538Z,9.00
2023-03-02T05:35:01.956Z,10.80
2023-03-02T05:36:05.217Z,5.90
2023-03-02T05:37:07.680Z,6.82
2023-03-02T05:38:11.248Z,9.00
2023-03-02T05:39:13.533Z,5.30
2023-03-02T05:40:19.293Z,10.40
2023-03-02T05:41:21.910Z,10.00
2023-03-02T05:42:24.369Z,7.20
2023-03-02T05:43:26.952Z,10.20
2023-03-02T05:44:29.223Z,9.50
2023-03-02T05:45:34.534Z,10.00
2023-03-02T05:46:37.684Z,5.10
2023-03-02T05:47:40.566Z,10.60
2023-03-02T05:48:44.155Z,9.30
2023-03-02T05:49:46.461Z,10.60
2023-03-02T05:50:49.203Z,9.20
2023-03-02T05:51:51.566Z,8.10
2023-03-02T05:52:53.929Z,6.90
2023-03-02T05:53:56.270Z,7.20
2023-03-02T05:54:59.604Z,5.50
2023-03-02T05:56:02.925Z,8.10
2023-03-02T05:57:06.835Z,11.30
2023-03-02T05:58:16.014Z,10.90
2023-03-02T05:59:18.327Z,9.00
2023-03-02T06:00:21.895Z,10.50
2023-03-02T06:01:24.288Z,14.80
2023-03-02T06:02:27.695Z,14.80
2023-03-02T06:03:32.347Z,19.90
2023-03-02T06:04:35.603Z,14.60
2023-03-02T06:05:38.941Z,14.09
2023-03-02T06:06:41.760Z,12.80
2023-03-02T06:07:44.511Z,15.60
2023-03-02T06:08:46.900Z,14.82
2023-03-02T06:09:50.636Z,13.80
2023-03-02T06:10:55.567Z,7.90
2023-03-02T06:11:58.972Z,8.30
2023-03-02T06:13:01.247Z,10.60
2023-03-02T06:14:03.560Z,15.00
2023-03-02T06:15:07.662Z,13.30
2023-03-02T06:16:10.271Z,15.20
2023-03-02T06:17:12.854Z,10.70
2023-03-02T06:18:15.034Z,13.70
2023-03-02T06:19:17.184Z,15.90
2023-03-02T06:20:19.672Z,17.30
2023-03-02T06:21:22.010Z,27.70
2023-03-02T06:22:24.262Z,16.10
2023-03-02T06:23:26.638Z,20.20
2023-03-02T06:24:28.800Z,20.90
2023-03-02T06:25:31.569Z,13.90
2023-03-02T06:26:34.218Z,20.18
2023-03-02T06:27:38.236Z,17.80
2023-03-02T06:28:56.558Z,13.20
2023-03-02T06:29:46.527Z,14.80
2023-03-02T06:30:49.662Z,16.30
2023-03-02T06:31:52.113Z,17.82
2023-03-02T06:32:55.942Z,26.40
2023-03-02T06:33:58.125Z,23.20
2023-03-02T06:35:02.398Z,17.80
2023-03-02T06:36:05.579Z,14.90
2023-03-02T06:37:08.528Z,10.80
2023-03-02T06:38:10.996Z,14.00
2023-03-02T06:39:16.371Z,11.00
2023-03-02T06:40:21.878Z,11.70
2023-03-02T06:41:25.153Z,11.20
2023-03-02T06:42:28.757Z,9.30
2023-03-02T06:43:32.160Z,11.00
2023-03-02T06:44:34.438Z,9.50
2023-03-02T06:45:37.255Z,12.10
2023-03-02T06:46:41.527Z,12.09
2023-03-02T06:47:43.766Z,4.50
2023-03-02T06:48:46.125Z,10.50
2023-03-02T06:49:48.728Z,4.60
2023-03-02T06:50:51.214Z,12.70
2023-03-02T06:51:53.503Z,8.60
2023-03-02T06:52:56.285Z,14.80
2023-03-02T06:53:59.231Z,13.36
2023-03-02T06:55:02.150Z,13.60
2023-03-02T06:56:06.310Z,11.20
2023-03-02T06:57:08.939Z,10.50
2023-03-02T06:58:12.646Z,10.90
2023-03-02T06:59:15.139Z,12.00
2023-03-02T07:00:20.832Z,12.55
2023-03-02T07:01:23.290Z,10.80
2023-03-02T07:02:26.278Z,6.00
2023-03-02T07:03:28.795Z,9.27
2023-03-02T07:04:31.046Z,10.70
2023-03-02T07:05:33.387Z,7.90
2023-03-02T07:06:35.990Z,8.00
2023-03-02T07:07:39.551Z,7.30
2023-03-02T07:08:42.190Z,12.00
2023-03-02T07:09:44.960Z,11.10
2023-03-02T07:10:47.573Z,12.00
2023-03-02T07:11:50.507Z,5.40
2023-03-02T07:12:53.102Z,1.20
2023-03-02T07:13:55.258Z,12.80
2023-03-02T07:14:57.649Z,10.30
2023-03-02T07:15:59.968Z,9.70
2023-03-02T07:17:04.555Z,9.70
2023-03-02T07:18:07.132Z,8.10
2023-03-02T07:19:12.178Z,10.20
2023-03-02T07:20:17.049Z,9.50
2023-03-02T07:21:19.275Z,4.40
2023-03-02T07:22:22.930Z,8.50
2023-03-02T07:23:26.619Z,8.90
2023-03-02T07:24:29.078Z,10.00
2023-03-02T07:25:32.118Z,9.20
2023-03-02T07:26:34.995Z,6.80
2023-03-02T07:27:37.718Z,3.82
2023-03-02T07:28:42.960Z,11.90
2023-03-02T07:29:45.351Z,9.90
2023-03-02T07:30:47.728Z,8.20
2023-03-02T07:31:52.042Z,8.90
2023-03-02T07:32:54.493Z,2.90
2023-03-02T07:33:56.860Z,8.20
2023-03-02T07:34:59.390Z,8.80
2023-03-02T07:36:03.601Z,6.20
2023-03-02T07:37:06.044Z,7.80
2023-03-02T07:38:08.351Z,8.50
2023-03-02T07:39:11.005Z,9.20
2023-03-02T07:40:14.119Z,9.00
2023-03-02T07:41:17.094Z,8.18
2023-03-02T07:42:19.520Z,9.60
2023-03-02T07:43:25.525Z,5.50
2023-03-02T07:44:29.238Z,8.10
2023-03-02T07:45:32.798Z,9.00
2023-03-02T07:46:36.077Z,6.70
2023-03-02T07:47:38.402Z,8.40
2023-03-02T07:48:41.707Z,8.70
2023-03-02T07:49:44.545Z,10.00
2023-03-02T07:50:47.089Z,7.00
2023-03-02T07:51:49.379Z,6.60
2023-03-02T07:52:51.595Z,10.10
2023-03-02T07:53:53.916Z,8.20
2023-03-02T07:54:56.482Z,8.50
2023-03-02T07:56:01.227Z,5.80
2023-03-02T07:57:03.464Z,10.20
2023-03-02T07:58:09.182Z,7.10
2023-03-02T07:59:13.622Z,7.30
2023-03-02T08:00:17.234Z,8.00
2023-03-02T08:01:21.121Z,8.60
2023-03-02T08:02:24.950Z,11.50
2023-03-02T08:03:27.795Z,7.30
2023-03-02T08:04:30.173Z,6.64
2023-03-02T08:05:32.206Z,9.50
2023-03-02T08:06:38.169Z,9.40
2023-03-02T08:07:42.105Z,3.60
2023-03-02T08:08:44.585Z,3.80
2023-03-02T08:09:46.834Z,7.90
2023-03-02T08:10:49.074Z,8.20
2023-03-02T08:11:56.198Z,7.40
2023-03-02T08:12:58.815Z,4.90
2023-03-02T08:14:02.334Z,6.90
2023-03-02T08:15:05.662Z,5.50
2023-03-02T08:16:10.661Z,6.00
2023-03-02T08:17:13.872Z,8.00
2023-03-02T08:18:16.122Z,8.18
2023-03-02T08:19:20.335Z,8.50
2023-03-02T08:20:23.272Z,6.30
2023-03-02T08:21:26.998Z,5.73
2023-03-02T08:22:29.945Z,2.50
2023-03-02T08:23:32.027Z,5.90
2023-03-02T08:24:34.123Z,4.40
2023-03-02T08:25:38.085Z,8.80
2023-03-02T08:26:40.572Z,5.20
2023-03-02T08:27:45.482Z,2.00
2023-03-02T08:28:49.756Z,5.20
2023-03-02T08:29:53.789Z,6.70
2023-03-02T08:31:00.243Z,7.00
2023-03-02T08:32:03.033Z,8.10
2023-03-02T08:33:07.293Z,6.40
2023-03-02T08:34:09.758Z,6.90
2023-03-02T08:35:15.136Z,6.50
2023-03-02T08:36:20.836Z,6.20
2023-03-02T08:37:40.928Z,5.30
2023-03-02T08:38:44.510Z,2.70
2023-03-02T08:39:48.177Z,4.90
2023-03-02T08:40:52.802Z,4.70
2023-03-02T08:41:55.179Z,3.50
2023-03-02T08:42:58.428Z,5.70
2023-03-02T08:44:00.892Z,5.90
2023-03-02T08:45:03.963Z,3.30
2023-03-02T08:46:06.533Z,4.30
2023-03-02T08:47:09.505Z,2.60
2023-03-02T08:48:25.608Z,3.10
2023-03-02T08:49:33.111Z,6.40
2023-03-02T08:50:38.263Z,5.40
2023-03-02T08:51:41.176Z,6.10
2023-03-02T08:52:43.798Z,5.00
2023-03-02T08:53:49.860Z,8.30
2023-03-02T08:54:52.364Z,6.90
2023-03-02T08:55:54.761Z,5.80
2023-03-02T08:56:57.432Z,6.80
2023-03-02T08:58:00.093Z,5.20
2023-03-02T08:59:05.987Z,5.30
2023-03-02T09:00:13.206Z,4.80
2023-03-02T09:01:18.985Z,4.60
2023-03-02T09:02:21.383Z,5.90
2023-03-02T09:03:23.854Z,5.60
2023-03-02T09:04:26.192Z,3.70
2023-03-02T09:05:29.661Z,5.50
2023-03-02T09:06:35.629Z,3.80
2023-03-02T09:07:38.090Z,7.20
2023-03-02T09:08:40.650Z,2.10
2023-03-02T09:09:44.129Z,4.60
2023-03-02T09:10:46.548Z,6.50
2023-03-02T09:11:49.025Z,4.80
2023-03-02T09:12:56.357Z,8.20
2023-03-02T09:13:58.716Z,13.30
2023-03-02T09:15:01.099Z,26.80
2023-03-02T09:16:04.165Z,21.70
2023-03-02T09:17:06.593Z,13.80
2023-03-02T09:18:09.001Z,21.00
2023-03-02T09:19:13.277Z,7.80
2023-03-02T09:20:16.960Z,7.80
2023-03-02T09:21:19.741Z,9.70
2023-03-02T09:22:22.892Z,8.20
2023-03-02T09:23:26.959Z,6.50
2023-03-02T09:24:29.177Z,9.30
2023-03-02T09:25:31.701Z,3.70
2023-03-02T09:26:36.191Z,9.30
2023-03-02T09:27:38.982Z,9.00
2023-03-02T09:28:42.525Z,9.80
2023-03-02T09:29:44.936Z,4.30
2023-03-02T09:31:00.441Z,10.20
2023-03-02T09:32:03.231Z,10.20
2023-03-02T09:33:06.967Z,6.73
2023-03-02T09:34:10.510Z,0.90
2023-03-02T09:35:14.896Z,6.70
2023-03-02T09:36:21.994Z,6.00
2023-03-02T09:37:26.336Z,9.20
2023-03-02T09:38:31.691Z,8.64
2023-03-02T09:39:38.466Z,4.70
2023-03-02T09:40:54.477Z,7.22
2023-03-02T09:42:22.032Z,6.60
2023-03-02T09:45:02.693Z,10.30
2023-03-02T09:46:21.578Z,13.80
2023-03-02T09:47:40.547Z,11.00
2023-03-02T09:49:21.952Z,12.70
2023-03-02T09:50:34.032Z,5.90
2023-03-02T09:51:49.030Z,9.70
2023-03-02T09:53:04.350Z,9.10
2023-03-02T09:54:10.043Z,10.30
2023-03-02T09:55:24.207Z,9.50
2023-03-02T09:56:27.202Z,9.10
2023-03-02T09:57:37.353Z,7.50
2023-03-02T09:58:41.709Z,2.70
2023-03-02T09:59:48.550Z,9.30
2023-03-02T10:00:51.841Z,9.30
2023-03-02T10:02:13.180Z,9.20
2023-03-02T10:03:22.159Z,6.30
2023-03-02T10:04:30.202Z,7.70
2023-03-02T10:05:36.873Z,5.50
2023-03-02T10:06:39.997Z,7.20
2023-03-02T10:07:42.325Z,5.09
2023-03-02T10:08:45.529Z,6.20
2023-03-02T10:09:48.138Z,5.60
2023-03-02T10:10:55.198Z,6.30
2023-03-02T10:12:20.608Z,7.10
2023-03-02T10:13:32.397Z,7.30
2023-03-02T10:14:40.334Z,7.40
2023-03-02T10:16:10.358Z,7.70
2023-03-02T10:17:25.825Z,7.00
2023-03-02T10:18:31.879Z,7.10
2023-03-02T10:19:44.582Z,2.30
2023-03-02T10:21:04.071Z,5.60
2023-03-02T10:22:15.901Z,5.90
2023-03-02T10:23:35.286Z,4.90
2023-03-02T10:24:48.303Z,5.00
2023-03-02T10:25:55.375Z,6.90
2023-03-02T10:27:01.331Z,6.00
2023-03-02T10:28:22.473Z,6.20
2023-03-02T10:29:31.249Z,7.00
2023-03-02T10:30:37.068Z,5.00
2023-03-02T10:31:42.799Z,6.90
2023-03-02T10:32:51.670Z,5.10
2023-03-02T10:33:54.880Z,2.60
2023-03-02T10:35:01.261Z,5.40
2023-03-02T10:36:07.408Z,7.50
2023-03-02T10:37:16.115Z,8.80
2023-03-02T10:38:21.944Z,13.20
2023-03-02T10:39:24.450Z,8.80
2023-03-02T10:40:45.810Z,12.90
2023-03-02T10:41:55.924Z,8.00
2023-03-02T10:42:59.670Z,8.00
2023-03-02T10:44:07.116Z,13.40
2023-03-02T10:45:28.698Z,9.90
2023-03-02T10:46:43.799Z,9.70
2023-03-02T10:47:46.805Z,1.90
2023-03-02T10:48:59.682Z,6.18
2023-03-02T10:50:02.167Z,3.90
2023-03-02T10:51:05.551Z,2.90
2023-03-02T10:52:16.543Z,4.60
2023-03-02T10:53:18.947Z,3.20
2023-03-02T10:54:23.792Z,6.73
2023-03-02T10:55:26.650Z,10.20
2023-03-02T10:56:31.722Z,7.18
2023-03-02T10:57:37.638Z,5.20
2023-03-02T10:58:41.548Z,8.20
2023-03-02T10:59:46.494Z,8.80
2023-03-02T11:00:57.577Z,9.70
2023-03-02T11:02:11.731Z,11.30
2023-03-02T11:03:21.736Z,10.10
2023-03-02T11:04:25.244Z,6.40
2023-03-02T11:05:40.521Z,5.60
2023-03-02T11:06:44.508Z,8.00
2023-03-02T11:08:13.295Z,6.80
2023-03-02T11:09:15.735Z,3.30
2023-03-02T11:10:22.374Z,6.80
2023-03-02T11:11:25.344Z,6.00
2023-03-02T11:12:29.754Z,4.90
2023-03-02T11:13:38.440Z,5.90
2023-03-02T11:14:42.050Z,6.50
2023-03-02T11:15:47.989Z,5.10
2023-03-02T11:16:52.203Z,7.00
2023-03-02T11:18:13.237Z,6.50
2023-03-02T11:19:19.699Z,7.50
2023-03-02T11:20:25.586Z,5.80
2023-03-02T11:21:48.230Z,8.20
2023-03-02T11:23:15.655Z,9.10
2023-03-02T11:24:28.656Z,7.40
2023-03-02T11:25:37.681Z,3.10
2023-03-02T11:26:52.886Z,6.00
2023-03-02T11:27:59.181Z,5.80
2023-03-02T11:30:24.203Z,7.60
2023-03-02T11:31:30.078Z,6.00
2023-03-02T11:32:39.093Z,6.60
2023-03-02T11:33:45.682Z,4.90
2023-03-02T11:34:57.592Z,4.60
2023-03-02T11:36:06.779Z,5.90
2023-03-02T11:37:22.124Z,2.80
2023-03-02T11:38:31.448Z,6.00
2023-03-02T11:39:55.605Z,4.80
2023-03-02T11:41:01.297Z,6.30
2023-03-02T11:42:03.738Z,10.90
2023-03-02T11:43:09.520Z,7.00
2023-03-02T11:44:19.232Z,8.90
2023-03-02T11:45:43.575Z,8.80
2023-03-02T11:46:49.649Z,3.80
2023-03-02T11:48:11.819Z,7.70
2023-03-02T11:49:39.485Z,7.70
2023-03-02T11:50:58.196Z,7.20
2023-03-02T11:52:04.529Z,6.70
2023-03-02T11:53:10.557Z,6.60
2023-03-02T11:54:37.507Z,3.40
2023-03-02T11:55:47.854Z,5.50
2023-03-02T11:56:50.625Z,6.00
2023-03-02T11:57:58.114Z,8.36
2023-03-02T11:59:06.689Z,8.30
2023-03-02T12:00:28.558Z,8.70
2023-03-02T12:01:35.604Z,4.00
2023-03-02T12:02:39.012Z,7.60
2023-03-02T12:03:42.955Z,6.90
2023-03-02T12:04:47.236Z,9.00
2023-03-02T12:05:59.466Z,7.00
2023-03-02T12:07:06.612Z,4.10
2023-03-02T12:08:21.299Z,7.40
2023-03-02T12:09:29.327Z,9.20
2023-03-02T12:10:35.413Z,5.70
2023-03-02T12:11:40.314Z,6.20
2023-03-02T12:12:46.506Z,7.50
2023-03-02T12:13:54.978Z,6.40
2023-03-02T12:14:58.034Z,3.30
2023-03-02T12:16:01.300Z,4.73
2023-03-02T12:17:10.408Z,5.60
2023-03-02T12:18:25.686Z,7.80
2023-03-02T12:19:31.875Z,9.10
2023-03-02T12:20:34.713Z,5.50
2023-03-02T12:21:42.918Z,6.60
2023-03-02T12:22:46.485Z,8.30
2023-03-02T12:23:52.570Z,6.20
2023-03-02T12:25:08.353Z,7.70
2023-03-02T12:26:23.527Z,8.30
2023-03-02T12:27:27.331Z,6.20
2023-03-02T12:28:34.014Z,7.10
2023-03-02T12:30:09.280Z,7.60
2023-03-02T12:31:13.574Z,7.70
2023-03-02T12:32:23.713Z,2.10
2023-03-02T12:33:27.307Z,6.10
2023-03-02T12:34:37.771Z,7.60
2023-03-02T12:35:40.512Z,5.70
2023-03-02T12:36:45.534Z,10.90
2023-03-02T12:37:57.716Z,8.00
2023-03-02T12:39:03.893Z,8.00
2023-03-02T12:40:17.161Z,8.50
2023-03-02T12:41:33.188Z,9.60
2023-03-02T12:42:43.436Z,10.40
2023-03-02T12:44:06.733Z,11.50
2023-03-02T12:45:22.800Z,9.00
2023-03-02T12:47:49.817Z,5.40
2023-03-02T12:49:16.383Z,19.60
2023-03-02T12:50:25.311Z,18.80
2023-03-02T12:51:33.706Z,15.50
2023-03-02T12:52:36.872Z,15.90
2023-03-02T12:53:40.577Z,14.30
2023-03-02T12:54:42.942Z,14.40
2023-03-02T12:55:46.925Z,14.30
2023-03-02T12:56:50.366Z,10.00
2023-03-02T12:57:55.690Z,11.30
2023-03-02T12:58:58.181Z,10.20
2023-03-02T13:00:03.129Z,12.20
2023-03-02T13:01:05.970Z,9.40
2023-03-02T13:02:17.952Z,7.45
2023-03-02T13:03:21.424Z,12.90
2023-03-02T13:04:27.533Z,8.20
2023-03-02T13:05:33.988Z,11.00
2023-03-02T13:06:39.053Z,5.90
2023-03-02T13:07:59.918Z,7.00
2023-03-02T13:09:03.117Z,3.80
2023-03-02T13:10:25.907Z,7.00
2023-03-02T13:11:35.500Z,7.00
2023-03-02T13:12:41.403Z,4.70
2023-03-02T13:13:44.934Z,4.30
2023-03-02T13:14:56.616Z,3.80
2023-03-02T13:16:03.873Z,6.30
2023-03-02T13:17:06.912Z,5.80
2023-03-02T13:18:12.202Z,9.30
2023-03-02T13:19:18.715Z,6.90
2023-03-02T13:20:25.232Z,7.00
2023-03-02T13:21:37.293Z,7.70
2023-03-02T13:22:41.531Z,7.70
2023-03-02T13:23:47.434Z,8.30
2023-03-02T13:25:03.013Z,8.20
2023-03-02T13:26:05.910Z,4.50
2023-03-02T13:27:15.299Z,13.30
2023-03-02T13:28:33.804Z,9.10
2023-03-02T13:29:36.005Z,16.20
2023-03-02T13:30:40.493Z,11.40
2023-03-02T13:31:43.023Z,9.30
2023-03-02T13:32:45.485Z,11.90
2023-03-02T13:33:50.288Z,7.30
2023-03-02T13:35:00.966Z,8.70
2023-03-02T13:36:03.821Z,9.70
2023-03-02T13:37:09.732Z,7.90
2023-03-02T13:38:18.671Z,16.30
2023-03-02T13:39:24.654Z,13.70
2023-03-02T13:40:33.485Z,3.60
2023-03-02T13:41:38.313Z,8.60
2023-03-02T13:42:41.828Z,7.80
2023-03-02T13:43:45.265Z,8.70
2023-03-02T13:44:48.016Z,9.50
2023-03-02T13:45:56.181Z,12.09
2023-03-02T13:47:00.838Z,10.00
2023-03-02T13:48:18.348Z,11.20
2023-03-02T13:49:30.584Z,6.70
2023-03-02T13:50:33.711Z,6.60
2023-03-02T13:51:39.769Z,3.50
2023-03-02T13:52:42.779Z,6.00
2023-03-02T13:53:54.580Z,7.27
2023-03-02T13:54:57.977Z,7.70
2023-03-02T13:56:00.595Z,10.10
2023-03-02T13:57:05.922Z,7.60
2023-03-02T13:58:11.850Z,7.70
2023-03-02T13:59:17.147Z,7.70
2023-03-02T14:00:23.621Z,5.90
2023-03-02T14:01:30.507Z,9.00
2023-03-02T14:02:34.122Z,10.60
2023-03-02T14:03:37.018Z,12.30
2023-03-02T14:04:39.617Z,6.27
2023-03-02T14:05:42.102Z,8.20
2023-03-02T14:06:45.396Z,7.00
2023-03-02T14:07:48.702Z,8.00
2023-03-02T14:08:52.304Z,8.40
2023-03-02T14:09:57.243Z,8.80
2023-03-02T14:11:00.725Z,6.50
2023-03-02T14:12:06.048Z,7.60
2023-03-02T14:13:30.320Z,7.30
2023-03-02T14:14:36.207Z,7.00
2023-03-02T14:15:42.102Z,8.00
2023-03-02T14:16:45.780Z,8.20
2023-03-02T14:17:50.276Z,5.00
2023-03-02T14:18:52.963Z,5.60
2023-03-02T14:19:56.653Z,4.80
2023-03-02T14:20:59.168Z,4.80
2023-03-02T14:22:02.202Z,4.90
2023-03-02T14:23:07.627Z,7.80
2023-03-02T14:24:10.598Z,7.40
2023-03-02T14:25:13.459Z,7.50
2023-03-02T14:26:31.414Z,7.91
2023-03-02T14:27:34.065Z,7.00
2023-03-02T14:28:37.269Z,5.40
2023-03-02T14:29:39.758Z,7.40
2023-03-02T14:30:44.085Z,8.90
2023-03-02T14:31:47.124Z,8.30
2023-03-02T14:32:51.563Z,6.27
2023-03-02T14:33:53.679Z,8.00
2023-03-02T14:34:56.128Z,8.50